Terminal Aerodrome Forecast
Issued by NWS

Home | Current Version | Previous Version | Text Only | Print | Product List | Glossary On
Versions: 1 2 3 4 5 6 7 8 9 10 11 12 13 14 15 16 17 18 19
000
FTUS45 KABQ 031100
TAFGUP
TAF
KGUP 031134Z 0312/0412 VRB03KT P6SM BKN100
     FM032000 24012KT P6SM VCTS BKN090CB
     FM040000 24010KT P6SM VCSH BKN100
     FM040300 VRB03KT P6SM BKN100=

USA.gov is the U.S. government's official web portal to all federal, state and local government web resources and services.